Concordia, Missouri
Current Conditions -  °F | °C
As of 9:58 AM on Wednesday 26 Nov 2014 (Local Time) from KSZL Reporting Station
Broken Clouds Broken Clouds  
Wind Chill: 34°   Ceiling: 4400
Heat Index: 41°   Visibility: 10mi
Dew Point: 35°   Wind: 13mph
Humidity: 79%   Direction: 290°WNW
Pressure: 29.96"   Gusts: NA
Location:  38.98°N, 93.57°W
Report Text: KSZL 261558Z 29011KT 10SM BKN044 05/02 A2996 RMK AO2A SLP154 T00510018 $
Loading
Personal Weather Stations






























Interactive Weather Map New forecast layout! Learn more

10-Day Weather Forecast

Advertisements
Track Severe Weather on mobile